createdAt,value
2023-10-05T00:02:37.385Z,9.60
2023-10-05T00:06:07.403Z,9.41
2023-10-05T00:09:31.168Z,9.37
2023-10-05T00:12:56.607Z,9.44
2023-10-05T00:16:23.261Z,9.18
2023-10-05T00:19:47.926Z,8.90
2023-10-05T00:23:12.000Z,9.74
2023-10-05T00:26:36.467Z,8.83
2023-10-05T00:30:00.209Z,8.77
2023-10-05T00:33:26.649Z,9.39
2023-10-05T00:36:51.865Z,9.11
2023-10-05T00:40:32.371Z,8.88
2023-10-05T00:43:56.940Z,9.09
2023-10-05T00:47:21.103Z,9.05
2023-10-05T00:50:48.062Z,8.65
2023-10-05T00:54:16.077Z,8.73
2023-10-05T00:57:39.920Z,8.62
2023-10-05T01:01:07.331Z,8.65
2023-10-05T01:04:36.365Z,8.68
2023-10-05T01:08:05.740Z,8.87
2023-10-05T01:11:38.773Z,8.75
2023-10-05T01:15:06.724Z,9.18
2023-10-05T01:18:32.541Z,8.58
2023-10-05T01:21:58.886Z,9.04
2023-10-05T01:25:23.951Z,9.32
2023-10-05T01:28:47.927Z,9.26
2023-10-05T01:32:12.460Z,8.94
2023-10-05T01:35:39.164Z,9.11
2023-10-05T01:39:09.707Z,9.20
2023-10-05T01:42:35.130Z,9.42
2023-10-05T01:45:58.954Z,9.44
2023-10-05T01:49:23.229Z,9.34
2023-10-05T01:52:47.510Z,9.55
2023-10-05T01:56:19.242Z,9.31
2023-10-05T01:59:45.576Z,9.08
2023-10-05T02:03:11.547Z,8.78
2023-10-05T02:06:41.470Z,8.58
2023-10-05T02:10:11.024Z,8.73
2023-10-05T02:13:34.944Z,8.67
2023-10-05T02:17:00.229Z,8.55
2023-10-05T02:20:39.953Z,8.82
2023-10-05T02:24:12.137Z,8.56
2023-10-05T02:27:39.906Z,8.71
2023-10-05T02:31:10.397Z,8.48
2023-10-05T02:34:41.185Z,8.53
2023-10-05T02:38:07.740Z,8.56
2023-10-05T02:41:39.659Z,8.24
2023-10-05T02:45:05.981Z,8.14
2023-10-05T02:48:32.164Z,8.45
2023-10-05T02:51:56.701Z,8.27
2023-10-05T02:55:19.879Z,8.58
2023-10-05T02:58:45.051Z,8.43
2023-10-05T03:02:10.972Z,8.66
2023-10-05T03:05:36.740Z,8.38
2023-10-05T03:09:08.729Z,8.58
2023-10-05T03:12:33.804Z,8.79
2023-10-05T03:16:00.841Z,8.67
2023-10-05T03:19:24.916Z,8.89
2023-10-05T03:22:48.731Z,8.63
2023-10-05T03:26:19.778Z,8.45
2023-10-05T03:29:47.710Z,8.37
2023-10-05T03:33:14.179Z,8.72
2023-10-05T03:36:37.838Z,8.30
2023-10-05T03:40:09.547Z,8.43
2023-10-05T03:43:34.601Z,8.58
2023-10-05T03:46:59.370Z,8.82
2023-10-05T03:50:24.330Z,8.61
2023-10-05T03:53:54.753Z,8.30
2023-10-05T03:57:18.362Z,8.22
2023-10-05T04:00:51.076Z,8.43
2023-10-05T04:04:15.430Z,8.17
2023-10-05T04:07:39.855Z,8.39
2023-10-05T04:11:06.048Z,8.76
2023-10-05T04:14:30.162Z,8.44
2023-10-05T04:17:55.712Z,8.40
2023-10-05T04:21:20.976Z,8.38
2023-10-05T04:24:46.124Z,8.66
2023-10-05T04:28:10.429Z,8.61
2023-10-05T04:31:37.733Z,8.58
2023-10-05T04:35:09.706Z,8.77
2023-10-05T04:38:34.066Z,8.50
2023-10-05T04:42:00.597Z,8.76
2023-10-05T04:45:25.245Z,8.80
2023-10-05T04:48:58.470Z,8.51
2023-10-05T04:52:25.696Z,8.48
2023-10-05T04:55:55.031Z,8.27
2023-10-05T04:59:26.500Z,8.50
2023-10-05T05:03:06.658Z,8.42
2023-10-05T05:06:33.533Z,8.63
2023-10-05T05:10:03.558Z,8.63
2023-10-05T05:13:29.624Z,8.69
2023-10-05T05:16:53.926Z,8.76
2023-10-05T05:20:18.810Z,8.50
2023-10-05T05:23:42.546Z,8.58
2023-10-05T05:27:13.391Z,8.59
2023-10-05T05:30:38.098Z,8.47
2023-10-05T05:34:03.644Z,8.49
2023-10-05T05:37:30.929Z,8.42
2023-10-05T05:40:55.380Z,8.70
2023-10-05T05:44:23.301Z,8.74
2023-10-05T05:47:47.718Z,8.86
2023-10-05T05:51:16.043Z,8.67
2023-10-05T05:54:40.402Z,8.62
2023-10-05T05:58:06.197Z,8.68
2023-10-05T06:01:42.760Z,8.95
2023-10-05T06:05:09.447Z,8.92
2023-10-05T06:08:32.430Z,9.22
2023-10-05T06:11:55.596Z,9.46
2023-10-05T06:15:18.493Z,9.77
2023-10-05T06:18:43.637Z,10.04
2023-10-05T06:22:08.159Z,10.39
2023-10-05T06:25:32.883Z,10.72
2023-10-05T06:28:57.349Z,11.04
2023-10-05T06:32:20.718Z,11.31
2023-10-05T06:35:45.412Z,11.87
2023-10-05T06:39:08.578Z,12.04
2023-10-05T06:42:31.838Z,12.41
2023-10-05T06:45:54.837Z,12.75
2023-10-05T06:49:17.673Z,12.99
2023-10-05T06:52:44.674Z,13.35
2023-10-05T06:56:08.186Z,13.60
2023-10-05T06:59:32.721Z,13.84
2023-10-05T07:02:56.576Z,14.02
2023-10-05T07:06:20.661Z,14.21
2023-10-05T07:09:46.376Z,14.66
2023-10-05T07:13:10.776Z,15.01
2023-10-05T07:16:34.304Z,15.22
2023-10-05T07:19:58.605Z,15.42
2023-10-05T07:23:22.456Z,15.99
2023-10-05T07:26:48.226Z,16.20
2023-10-05T07:30:12.771Z,16.71
2023-10-05T07:33:37.379Z,16.80
2023-10-05T07:37:01.815Z,17.56
2023-10-05T07:40:27.686Z,18.06
2023-10-05T07:47:42.449Z,19.16
2023-10-05T07:51:06.105Z,19.88
2023-10-05T07:54:30.058Z,20.74
2023-10-05T07:57:54.364Z,20.85
2023-10-05T08:01:20.305Z,20.98
2023-10-05T08:04:46.550Z,21.10
2023-10-05T08:08:11.995Z,21.38
2023-10-05T08:11:36.253Z,21.76
2023-10-05T08:15:01.221Z,22.01
2023-10-05T08:18:27.333Z,22.96
2023-10-05T08:21:51.067Z,23.17
2023-10-05T08:25:14.877Z,23.38
2023-10-05T08:28:38.798Z,23.89
2023-10-05T08:32:03.571Z,23.63
2023-10-05T08:35:28.970Z,22.89
2023-10-05T08:38:55.691Z,23.86
2023-10-05T08:42:19.487Z,24.02
2023-10-05T08:45:53.371Z,23.40
2023-10-05T08:49:17.870Z,23.90
2023-10-05T08:52:43.864Z,24.42
2023-10-05T08:56:06.585Z,23.87
2023-10-05T08:59:30.268Z,24.79
2023-10-05T09:02:54.335Z,24.98
2023-10-05T09:06:22.525Z,25.61
2023-10-05T09:09:55.910Z,25.05
2023-10-05T09:13:24.799Z,25.27
2023-10-05T09:16:57.429Z,25.18
2023-10-05T09:20:24.821Z,25.87
2023-10-05T09:23:52.756Z,26.19
2023-10-05T09:27:18.955Z,26.13
2023-10-05T09:30:57.479Z,25.99
2023-10-05T09:34:22.536Z,26.00
2023-10-05T09:37:48.099Z,26.19
2023-10-05T09:41:13.311Z,26.52
2023-10-05T09:44:38.715Z,26.58
2023-10-05T09:48:03.791Z,25.59
2023-10-05T09:51:28.179Z,26.04
2023-10-05T09:54:52.573Z,27.26
2023-10-05T09:58:19.811Z,26.86
2023-10-05T10:01:49.260Z,25.60
2023-10-05T10:05:31.861Z,26.58
2023-10-05T10:09:09.199Z,26.87
2023-10-05T10:12:40.142Z,27.13
2023-10-05T10:16:05.314Z,26.59
2023-10-05T10:19:46.916Z,26.90
2023-10-05T10:23:16.446Z,27.34
2023-10-05T10:26:43.177Z,27.61
2023-10-05T10:30:14.154Z,27.44
2023-10-05T10:33:38.794Z,27.62
2023-10-05T10:37:05.019Z,28.29
2023-10-05T10:40:31.845Z,28.72
2023-10-05T10:43:58.942Z,29.00
2023-10-05T10:47:24.115Z,27.89
2023-10-05T10:50:49.218Z,27.37
2023-10-05T10:54:17.169Z,28.08
2023-10-05T10:57:40.395Z,26.94
2023-10-05T11:01:05.888Z,27.57
2023-10-05T11:04:50.128Z,27.34
2023-10-05T11:08:22.324Z,26.64
2023-10-05T11:11:46.909Z,26.68
2023-10-05T11:15:12.924Z,26.20
2023-10-05T11:18:42.564Z,26.70
2023-10-05T11:22:13.666Z,24.99
2023-10-05T11:25:38.253Z,26.54
2023-10-05T11:29:11.718Z,26.68
2023-10-05T11:32:55.733Z,27.07
2023-10-05T11:36:23.973Z,27.24
2023-10-05T11:39:51.222Z,27.41
2023-10-05T11:43:16.998Z,26.85
2023-10-05T11:46:45.772Z,26.68
2023-10-05T11:50:10.571Z,26.92
2023-10-05T11:53:33.577Z,27.75
2023-10-05T11:56:57.352Z,28.01
2023-10-05T12:00:21.286Z,27.63
2023-10-05T12:03:48.882Z,28.15
2023-10-05T12:07:14.491Z,27.99
2023-10-05T12:10:39.582Z,27.71
2023-10-05T12:14:06.209Z,27.26
2023-10-05T12:17:30.645Z,27.27
2023-10-05T12:20:55.868Z,28.36
2023-10-05T12:24:19.152Z,28.56
2023-10-05T12:27:42.632Z,28.51
2023-10-05T12:31:08.265Z,28.95
2023-10-05T12:34:33.583Z,28.12
2023-10-05T12:38:00.244Z,28.83
2023-10-05T12:41:23.839Z,29.43
2023-10-05T12:44:49.012Z,29.25
2023-10-05T12:48:13.579Z,29.67
2023-10-05T12:51:37.765Z,28.54
2023-10-05T12:55:03.599Z,29.19
2023-10-05T12:58:27.458Z,29.88
2023-10-05T13:01:51.006Z,29.40
2023-10-05T13:05:28.602Z,30.14
2023-10-05T13:08:57.632Z,29.28
2023-10-05T13:12:23.303Z,29.24
2023-10-05T13:15:47.826Z,27.71
2023-10-05T13:19:14.695Z,29.19
2023-10-05T13:22:39.211Z,28.85
2023-10-05T13:26:03.395Z,28.70
2023-10-05T13:29:28.955Z,28.93
2023-10-05T13:32:59.482Z,28.73
2023-10-05T13:36:23.593Z,29.23
2023-10-05T13:39:47.493Z,29.31
2023-10-05T13:43:12.862Z,29.30
2023-10-05T13:46:44.803Z,29.77
2023-10-05T13:50:10.600Z,29.12
2023-10-05T13:53:36.583Z,27.93
2023-10-05T13:57:01.960Z,27.58
2023-10-05T14:00:26.496Z,27.26
2023-10-05T14:03:51.917Z,27.77
2023-10-05T14:07:15.506Z,27.77
2023-10-05T14:10:39.478Z,28.17
2023-10-05T14:14:02.609Z,27.85
2023-10-05T14:17:27.165Z,28.15
2023-10-05T14:20:52.657Z,28.49
2023-10-05T14:24:19.543Z,27.98
2023-10-05T14:27:48.515Z,28.44
2023-10-05T14:31:12.837Z,25.87
2023-10-05T14:34:36.870Z,25.18
2023-10-05T14:38:04.513Z,24.96
2023-10-05T14:41:27.352Z,25.10
2023-10-05T14:44:51.347Z,24.59
2023-10-05T14:48:15.640Z,25.42
2023-10-05T14:51:40.151Z,25.99
2023-10-05T14:55:05.583Z,25.39
2023-10-05T14:58:31.130Z,25.19
2023-10-05T15:01:56.654Z,24.69
2023-10-05T15:05:21.058Z,24.40
2023-10-05T15:08:47.136Z,24.41
2023-10-05T15:12:12.407Z,24.74
2023-10-05T15:15:35.801Z,24.36
2023-10-05T15:19:00.847Z,23.90
2023-10-05T15:22:26.697Z,23.70
2023-10-05T15:25:52.055Z,23.13
2023-10-05T15:29:18.362Z,22.70
2023-10-05T15:32:43.034Z,22.28
2023-10-05T15:36:07.627Z,22.29
2023-10-05T15:39:32.263Z,22.09
2023-10-05T15:42:56.259Z,21.71
2023-10-05T15:46:21.774Z,21.90
2023-10-05T15:49:46.823Z,21.54
2023-10-05T15:53:11.304Z,21.21
2023-10-05T15:56:34.926Z,20.99
2023-10-05T15:59:59.129Z,20.86
2023-10-05T16:03:24.437Z,20.67
2023-10-05T16:06:48.712Z,20.48
2023-10-05T16:10:12.598Z,20.44
2023-10-05T16:13:36.965Z,20.36
2023-10-05T16:17:00.730Z,19.79
2023-10-05T16:20:27.877Z,19.45
2023-10-05T16:23:51.561Z,19.26
2023-10-05T16:27:15.684Z,19.29
2023-10-05T16:30:39.676Z,19.28
2023-10-05T16:34:04.500Z,19.00
2023-10-05T16:37:32.218Z,19.15
2023-10-05T16:40:58.537Z,19.23
2023-10-05T16:44:23.359Z,19.01
2023-10-05T16:47:47.726Z,19.02
2023-10-05T16:51:12.122Z,18.88
2023-10-05T16:54:40.029Z,18.81
2023-10-05T16:58:05.898Z,18.82
2023-10-05T17:01:30.854Z,18.60
2023-10-05T17:04:55.806Z,18.34
2023-10-05T17:08:23.279Z,18.67
2023-10-05T17:11:49.125Z,18.43
2023-10-05T17:15:14.672Z,18.38
2023-10-05T17:18:40.675Z,18.25
2023-10-05T17:22:06.167Z,18.00
2023-10-05T17:25:34.748Z,18.15
2023-10-05T17:29:00.999Z,17.76
2023-10-05T17:32:26.550Z,17.70
2023-10-05T17:35:53.074Z,17.62
2023-10-05T17:39:17.776Z,17.79
2023-10-05T17:42:43.203Z,17.43
2023-10-05T17:46:11.409Z,17.32
2023-10-05T17:49:39.273Z,17.59
2023-10-05T17:53:08.149Z,17.57
2023-10-05T17:56:34.956Z,16.98
2023-10-05T17:59:59.287Z,16.59
2023-10-05T18:03:28.622Z,16.53
2023-10-05T18:06:54.723Z,16.54
2023-10-05T18:10:20.348Z,16.54
2023-10-05T18:13:48.008Z,16.53
2023-10-05T18:17:12.774Z,16.41
2023-10-05T18:20:41.532Z,16.25
2023-10-05T18:24:10.206Z,16.30
2023-10-05T18:27:37.579Z,15.93
2023-10-05T18:31:07.170Z,16.24
2023-10-05T18:34:34.472Z,16.06
2023-10-05T18:38:03.438Z,16.03
2023-10-05T18:41:31.110Z,16.10
2023-10-05T18:44:57.752Z,16.12
2023-10-05T18:48:23.804Z,16.19
2023-10-05T18:51:52.496Z,16.14
2023-10-05T18:55:22.493Z,16.39
2023-10-05T18:58:48.748Z,15.67
2023-10-05T19:02:19.869Z,15.90
2023-10-05T19:05:46.683Z,15.91
2023-10-05T19:09:14.391Z,16.19
2023-10-05T19:12:44.123Z,15.49
2023-10-05T19:16:12.482Z,15.52
2023-10-05T19:19:39.019Z,15.94
2023-10-05T19:23:06.947Z,15.33
2023-10-05T19:26:33.371Z,15.63
2023-10-05T19:30:01.066Z,15.29
2023-10-05T19:33:26.948Z,15.35
2023-10-05T19:36:52.068Z,15.26
2023-10-05T19:40:19.706Z,15.27
2023-10-05T19:43:46.533Z,15.26
2023-10-05T19:47:20.006Z,15.21
2023-10-05T19:50:46.146Z,15.23
2023-10-05T19:54:14.371Z,15.29
2023-10-05T19:57:41.672Z,14.71
2023-10-05T20:01:08.518Z,15.05
2023-10-05T20:04:37.114Z,14.73
2023-10-05T20:08:05.103Z,14.74
2023-10-05T20:11:30.073Z,14.52
2023-10-05T20:14:55.789Z,14.55
2023-10-05T20:18:22.399Z,14.44
2023-10-05T20:21:51.604Z,14.53
2023-10-05T20:25:16.636Z,14.43
2023-10-05T20:28:42.906Z,14.78
2023-10-05T20:32:07.327Z,14.68
2023-10-05T20:35:31.793Z,14.66
2023-10-05T20:38:57.516Z,15.02
2023-10-05T20:42:21.582Z,14.92
2023-10-05T20:45:45.958Z,14.56
2023-10-05T20:49:10.766Z,14.36
2023-10-05T20:52:35.184Z,14.49
2023-10-05T20:56:00.548Z,14.20
2023-10-05T20:59:27.997Z,14.35
2023-10-05T21:02:52.379Z,14.15
2023-10-05T21:06:17.210Z,14.20
2023-10-05T21:09:41.863Z,14.28
2023-10-05T21:13:07.582Z,14.24
2023-10-05T21:16:31.817Z,13.92
2023-10-05T21:19:56.452Z,13.98
2023-10-05T21:23:20.962Z,13.79
2023-10-05T21:26:45.208Z,13.35
2023-10-05T21:30:12.710Z,13.31
2023-10-05T21:33:36.943Z,13.12
2023-10-05T21:37:01.055Z,13.17
2023-10-05T21:40:25.622Z,12.98
2023-10-05T21:43:50.268Z,13.35
2023-10-05T21:47:17.069Z,13.23
2023-10-05T21:50:40.735Z,13.12
2023-10-05T21:54:05.369Z,13.20
2023-10-05T21:57:29.658Z,13.00
2023-10-05T22:00:55.624Z,13.08
2023-10-05T22:04:21.756Z,13.09
2023-10-05T22:07:47.520Z,13.02
2023-10-05T22:11:12.578Z,13.18
2023-10-05T22:14:36.736Z,12.95
2023-10-05T22:18:01.019Z,13.12
2023-10-05T22:21:26.339Z,12.84
2023-10-05T22:24:51.032Z,12.92
2023-10-05T22:28:15.058Z,12.82
2023-10-05T22:31:39.593Z,12.36
2023-10-05T22:35:04.965Z,12.54
2023-10-05T22:38:41.585Z,12.36
2023-10-05T22:42:08.759Z,12.46
2023-10-05T22:45:34.150Z,12.21
2023-10-05T22:48:58.711Z,12.29
2023-10-05T22:52:22.596Z,12.20
2023-10-05T22:55:47.932Z,12.52
2023-10-05T22:59:12.107Z,12.25
2023-10-05T23:02:35.962Z,12.46
2023-10-05T23:06:00.271Z,12.41
2023-10-05T23:09:24.742Z,12.64
2023-10-05T23:12:50.313Z,12.41
2023-10-05T23:16:19.083Z,12.68
2023-10-05T23:19:44.905Z,12.32
2023-10-05T23:23:09.429Z,12.14
2023-10-05T23:26:33.615Z,11.91
2023-10-05T23:29:59.092Z,11.75
2023-10-05T23:33:27.488Z,11.85
2023-10-05T23:36:51.781Z,11.74
2023-10-05T23:40:17.397Z,11.50
2023-10-05T23:43:42.421Z,11.38
2023-10-05T23:47:23.823Z,11.32
2023-10-05T23:50:48.652Z,11.29
2023-10-05T23:54:13.191Z,11.14
2023-10-05T23:57:37.764Z,10.92
